sensor_id;sensor_type;location;lat;lon;timestamp;pressure;altitude;pressure_sealevel;temperature;humidity
75681;BME280;64294;49.176;16.626;2023-01-28T00:00:54;99633.97;;;-0.53;74.21
75681;BME280;64294;49.176;16.626;2023-01-28T00:03:19;99623.25;;;-0.51;74.27
75681;BME280;64294;49.176;16.626;2023-01-28T00:05:45;99634.44;;;-0.55;74.37
75681;BME280;64294;49.176;16.626;2023-01-28T00:08:10;99631.84;;;-0.49;75.03
75681;BME280;64294;49.176;16.626;2023-01-28T00:10:37;99629.22;;;-0.53;74.17
75681;BME280;64294;49.176;16.626;2023-01-28T00:13:07;99629.09;;;-0.49;74.81
75681;BME280;64294;49.176;16.626;2023-01-28T00:15:32;99637.50;;;-0.53;74.74
75681;BME280;64294;49.176;16.626;2023-01-28T00:17:58;99637.19;;;-0.55;75.20
75681;BME280;64294;49.176;16.626;2023-01-28T00:20:23;99637.06;;;-0.51;75.23
75681;BME280;64294;49.176;16.626;2023-01-28T00:22:49;99639.97;;;-0.55;74.91
75681;BME280;64294;49.176;16.626;2023-01-28T00:25:15;99638.53;;;-0.59;75.44
75681;BME280;64294;49.176;16.626;2023-01-28T00:27:41;99651.88;;;-0.58;75.10
75681;BME280;64294;49.176;16.626;2023-01-28T00:30:07;99648.34;;;-0.58;75.92
75681;BME280;64294;49.176;16.626;2023-01-28T00:32:32;99640.34;;;-0.66;76.27
75681;BME280;64294;49.176;16.626;2023-01-28T00:34:58;99643.34;;;-0.51;75.95
75681;BME280;64294;49.176;16.626;2023-01-28T00:37:23;99651.00;;;-0.55;76.19
75681;BME280;64294;49.176;16.626;2023-01-28T00:39:49;99652.66;;;-0.57;76.54
75681;BME280;64294;49.176;16.626;2023-01-28T00:42:14;99651.88;;;-0.58;76.01
75681;BME280;64294;49.176;16.626;2023-01-28T00:44:40;99648.25;;;-0.55;76.42
75681;BME280;64294;49.176;16.626;2023-01-28T00:47:05;99639.19;;;-0.55;75.79
75681;BME280;64294;49.176;16.626;2023-01-28T00:49:31;99661.13;;;-0.52;75.66
75681;BME280;64294;49.176;16.626;2023-01-28T00:51:56;99646.59;;;-0.43;75.72
75681;BME280;64294;49.176;16.626;2023-01-28T00:54:22;99641.81;;;-0.52;75.22
75681;BME280;64294;49.176;16.626;2023-01-28T00:56:47;99639.06;;;-0.43;76.17
75681;BME280;64294;49.176;16.626;2023-01-28T00:59:12;99643.38;;;-0.42;74.95
75681;BME280;64294;49.176;16.626;2023-01-28T01:01:38;99640.91;;;-0.49;76.21
75681;BME280;64294;49.176;16.626;2023-01-28T01:04:03;99651.19;;;-0.40;75.98
75681;BME280;64294;49.176;16.626;2023-01-28T01:06:32;99650.13;;;-0.43;75.92
75681;BME280;64294;49.176;16.626;2023-01-28T01:08:58;99654.56;;;-0.45;75.83
75681;BME280;64294;49.176;16.626;2023-01-28T01:11:23;99659.91;;;-0.51;76.44
75681;BME280;64294;49.176;16.626;2023-01-28T01:13:53;99652.25;;;-0.47;76.09
75681;BME280;64294;49.176;16.626;2023-01-28T01:16:20;99651.50;;;-0.47;76.52
75681;BME280;64294;49.176;16.626;2023-01-28T01:18:46;99652.56;;;-0.45;76.15
75681;BME280;64294;49.176;16.626;2023-01-28T01:21:14;99643.97;;;-0.47;76.15
75681;BME280;64294;49.176;16.626;2023-01-28T01:23:42;99648.72;;;-0.47;76.69
75681;BME280;64294;49.176;16.626;2023-01-28T01:26:07;99644.56;;;-0.52;76.88
75681;BME280;64294;49.176;16.626;2023-01-28T01:28:33;99655.31;;;-0.45;76.50
75681;BME280;64294;49.176;16.626;2023-01-28T01:31:01;99652.25;;;-0.47;77.08
75681;BME280;64294;49.176;16.626;2023-01-28T01:33:28;99653.03;;;-0.46;76.89
75681;BME280;64294;49.176;16.626;2023-01-28T01:35:54;99660.22;;;-0.49;77.00
75681;BME280;64294;49.176;16.626;2023-01-28T01:38:19;99666.34;;;-0.54;77.77
75681;BME280;64294;49.176;16.626;2023-01-28T01:40:45;99661.41;;;-0.59;77.88
75681;BME280;64294;49.176;16.626;2023-01-28T01:43:21;99662.34;;;-0.53;77.51
75681;BME280;64294;49.176;16.626;2023-01-28T01:45:51;99660.16;;;-0.58;77.13
75681;BME280;64294;49.176;16.626;2023-01-28T01:48:32;99664.59;;;-0.61;77.98
75681;BME280;64294;49.176;16.626;2023-01-28T01:51:08;99663.84;;;-0.61;78.02
75681;BME280;64294;49.176;16.626;2023-01-28T01:53:36;99659.84;;;-0.60;78.04
75681;BME280;64294;49.176;16.626;2023-01-28T01:56:06;99666.00;;;-0.56;77.65
75681;BME280;64294;49.176;16.626;2023-01-28T01:58:36;99662.47;;;-0.56;77.77
75681;BME280;64294;49.176;16.626;2023-01-28T02:01:05;99666.47;;;-0.57;77.16
75681;BME280;64294;49.176;16.626;2023-01-28T02:03:38;99673.84;;;-0.54;77.82
75681;BME280;64294;49.176;16.626;2023-01-28T02:06:05;99677.56;;;-0.48;76.83
75681;BME280;64294;49.176;16.626;2023-01-28T02:08:32;99671.91;;;-0.45;76.98
75681;BME280;64294;49.176;16.626;2023-01-28T02:11:03;99681.25;;;-0.42;77.20
75681;BME280;64294;49.176;16.626;2023-01-28T02:13:39;99682.03;;;-0.42;77.25
75681;BME280;64294;49.176;16.626;2023-01-28T02:16:06;99674.72;;;-0.36;77.88
75681;BME280;64294;49.176;16.626;2023-01-28T02:18:32;99673.28;;;-0.40;77.80
75681;BME280;64294;49.176;16.626;2023-01-28T02:26:58;99674.97;;;-0.43;78.19
75681;BME280;64294;49.176;16.626;2023-01-28T02:29:41;99678.94;;;-0.44;78.43
75681;BME280;64294;49.176;16.626;2023-01-28T02:32:14;99675.59;;;-0.39;78.08
75681;BME280;64294;49.176;16.626;2023-01-28T02:38:02;99676.34;;;-0.47;78.49
75681;BME280;64294;49.176;16.626;2023-01-28T02:40:31;99667.66;;;-0.37;79.05
75681;BME280;64294;49.176;16.626;2023-01-28T02:42:58;99668.69;;;-0.43;79.17
75681;BME280;64294;49.176;16.626;2023-01-28T02:45:31;99673.75;;;-0.42;79.26
75681;BME280;64294;49.176;16.626;2023-01-28T02:48:17;99670.66;;;-0.44;78.45
75681;BME280;64294;49.176;16.626;2023-01-28T02:53:35;99669.75;;;-0.41;79.81
75681;BME280;64294;49.176;16.626;2023-01-28T03:07:35;99667.66;;;-0.37;79.29
75681;BME280;64294;49.176;16.626;2023-01-28T03:10:05;99659.38;;;-0.27;79.01
75681;BME280;64294;49.176;16.626;2023-01-28T03:12:34;99656.63;;;-0.27;79.47
75681;BME280;64294;49.176;16.626;2023-01-28T03:15:41;99659.84;;;-0.29;80.10
75681;BME280;64294;49.176;16.626;2023-01-28T03:18:31;99658.00;;;-0.23;80.13
75681;BME280;64294;49.176;16.626;2023-01-28T03:21:19;99664.28;;;-0.32;80.57
75681;BME280;64294;49.176;16.626;2023-01-28T03:24:08;99662.91;;;-0.27;79.92
75681;BME280;64294;49.176;16.626;2023-01-28T03:27:02;99664.13;;;-0.28;80.04
75681;BME280;64294;49.176;16.626;2023-01-28T03:29:50;99665.53;;;-0.23;80.46
75681;BME280;64294;49.176;16.626;2023-01-28T03:32:39;99660.78;;;-0.23;80.10
75681;BME280;64294;49.176;16.626;2023-01-28T03:35:24;99660.00;;;-0.23;80.61
75681;BME280;64294;49.176;16.626;2023-01-28T03:38:12;99655.72;;;-0.24;80.59
75681;BME280;64294;49.176;16.626;2023-01-28T03:41:03;99665.38;;;-0.20;80.57
75681;BME280;64294;49.176;16.626;2023-01-28T03:43:29;99674.13;;;-0.21;81.14
75681;BME280;64294;49.176;16.626;2023-01-28T03:45:55;99666.59;;;-0.21;81.13
75681;BME280;64294;49.176;16.626;2023-01-28T03:48:25;99669.06;;;-0.23;81.60
75681;BME280;64294;49.176;16.626;2023-01-28T03:50:52;99674.41;;;-0.28;81.62
75681;BME280;64294;49.176;16.626;2023-01-28T03:53:18;99676.44;;;-0.20;81.12
75681;BME280;64294;49.176;16.626;2023-01-28T03:55:46;99670.13;;;-0.20;81.44
75681;BME280;64294;49.176;16.626;2023-01-28T03:58:12;99668.59;;;-0.21;81.64
75681;BME280;64294;49.176;16.626;2023-01-28T04:00:38;99672.91;;;-0.20;81.67
75681;BME280;64294;49.176;16.626;2023-01-28T04:03:11;99666.00;;;-0.25;82.24
75681;BME280;64294;49.176;16.626;2023-01-28T04:06:00;99675.03;;;-0.24;82.53
75681;BME280;64294;49.176;16.626;2023-01-28T04:08:25;99661.72;;;-0.17;81.91
75681;BME280;64294;49.176;16.626;2023-01-28T04:10:51;99665.88;;;-0.12;82.31
75681;BME280;64294;49.176;16.626;2023-01-28T04:13:18;99673.56;;;-0.16;82.30
75681;BME280;64294;49.176;16.626;2023-01-28T04:15:43;99677.66;;;-0.21;82.88
75681;BME280;64294;49.176;16.626;2023-01-28T04:18:09;99672.91;;;-0.20;83.13
75681;BME280;64294;49.176;16.626;2023-01-28T04:20:35;99673.88;;;-0.14;83.33
75681;BME280;64294;49.176;16.626;2023-01-28T04:23:01;99674.78;;;-0.17;83.83
75681;BME280;64294;49.176;16.626;2023-01-28T04:25:26;99673.88;;;-0.14;83.76
75681;BME280;64294;49.176;16.626;2023-01-28T04:27:51;99668.81;;;-0.16;84.19
75681;BME280;64294;49.176;16.626;2023-01-28T04:30:18;99673.25;;;-0.18;84.17
75681;BME280;64294;49.176;16.626;2023-01-28T04:32:45;99675.41;;;-0.13;83.67
75681;BME280;64294;49.176;16.626;2023-01-28T04:35:10;99677.84;;;-0.15;84.06
75681;BME280;64294;49.176;16.626;2023-01-28T04:37:36;99674.13;;;-0.21;84.33
75681;BME280;64294;49.176;16.626;2023-01-28T04:40:01;99685.19;;;-0.21;84.63
75681;BME280;64294;49.176;16.626;2023-01-28T04:42:27;99677.84;;;-0.15;84.55
75681;BME280;64294;49.176;16.626;2023-01-28T04:44:52;99677.66;;;-0.21;84.52
75681;BME280;64294;49.176;16.626;2023-01-28T04:47:18;99682.59;;;-0.16;84.60
75681;BME280;64294;49.176;16.626;2023-01-28T04:49:44;99681.84;;;-0.16;84.84
75681;BME280;64294;49.176;16.626;2023-01-28T04:52:09;99686.25;;;-0.19;84.40
75681;BME280;64294;49.176;16.626;2023-01-28T04:54:35;99685.63;;;-0.23;84.89
75681;BME280;64294;49.176;16.626;2023-01-28T04:57:00;99674.00;;;-0.18;84.62
75681;BME280;64294;49.176;16.626;2023-01-28T04:59:26;99681.69;;;-0.13;83.90
75681;BME280;64294;49.176;16.626;2023-01-28T05:01:51;99690.28;;;-0.11;83.73
75681;BME280;64294;49.176;16.626;2023-01-28T05:04:16;99686.16;;;-0.15;82.97
75681;BME280;64294;49.176;16.626;2023-01-28T05:06:42;99681.19;;;-0.20;83.21
75681;BME280;64294;49.176;16.626;2023-01-28T05:09:08;99681.53;;;-0.18;83.39
75681;BME280;64294;49.176;16.626;2023-01-28T05:11:33;99689.03;;;-0.19;83.78
75681;BME280;64294;49.176;16.626;2023-01-28T05:13:58;99692.88;;;-0.16;83.73
75681;BME280;64294;49.176;16.626;2023-01-28T05:16:24;99688.59;;;-0.17;83.22
75681;BME280;64294;49.176;16.626;2023-01-28T05:18:49;99683.31;;;-0.24;83.31
75681;BME280;64294;49.176;16.626;2023-01-28T05:21:16;99686.41;;;-0.22;82.87
75681;BME280;64294;49.176;16.626;2023-01-28T05:23:41;99692.88;;;-0.16;82.54
75681;BME280;64294;49.176;16.626;2023-01-28T05:26:07;99691.97;;;-0.13;82.06
75681;BME280;64294;49.176;16.626;2023-01-28T05:28:32;99687.69;;;-0.14;82.69
75681;BME280;64294;49.176;16.626;2023-01-28T05:31:02;99696.88;;;-0.17;83.30
75681;BME280;64294;49.176;16.626;2023-01-28T05:33:28;99703.66;;;-0.09;82.56
75681;BME280;64294;49.176;16.626;2023-01-28T05:35:53;99697.50;;;-0.13;82.83
75681;BME280;64294;49.176;16.626;2023-01-28T05:38:19;99706.41;;;-0.18;82.46
75681;BME280;64294;49.176;16.626;2023-01-28T05:40:46;99708.81;;;-0.20;82.51
75681;BME280;64294;49.176;16.626;2023-01-28T05:43:11;99710.72;;;-0.08;82.39
75681;BME280;64294;49.176;16.626;2023-01-28T05:45:36;99715.09;;;-0.20;82.87
75681;BME280;64294;49.176;16.626;2023-01-28T05:48:02;99709.94;;;-0.18;82.79
75681;BME280;64294;49.176;16.626;2023-01-28T05:50:27;99711.63;;;-0.11;82.21
75681;BME280;64294;49.176;16.626;2023-01-28T05:52:53;99712.41;;;-0.11;82.47
75681;BME280;64294;49.176;16.626;2023-01-28T05:55:18;99713.56;;;-0.21;82.06
75681;BME280;64294;49.176;16.626;2023-01-28T05:57:43;99713.47;;;-0.08;82.32
75681;BME280;64294;49.176;16.626;2023-01-28T06:00:10;99720.22;;;-0.18;82.62
75681;BME280;64294;49.176;16.626;2023-01-28T06:02:35;99715.00;;;-0.16;82.77
75681;BME280;64294;49.176;16.626;2023-01-28T06:05:01;99723.84;;;-0.21;83.55
75681;BME280;64294;49.176;16.626;2023-01-28T06:07:26;99717.09;;;-0.20;83.16
75681;BME280;64294;49.176;16.626;2023-01-28T06:09:51;99714.88;;;-0.04;82.89
75681;BME280;64294;49.176;16.626;2023-01-28T06:12:17;99717.31;;;-0.06;81.77
75681;BME280;64294;49.176;16.626;2023-01-28T06:14:42;99728.81;;;-0.07;81.95
75681;BME280;64294;49.176;16.626;2023-01-28T06:17:08;99735.25;;;-0.10;82.27
75681;BME280;64294;49.176;16.626;2023-01-28T06:19:33;99734.00;;;-0.18;82.68
75681;BME280;64294;49.176;16.626;2023-01-28T06:21:59;99740.78;;;-0.10;81.93
75681;BME280;64294;49.176;16.626;2023-01-28T06:24:24;99742.94;;;-0.14;82.26
75681;BME280;64294;49.176;16.626;2023-01-28T06:26:50;99742.63;;;-0.16;82.85
75681;BME280;64294;49.176;16.626;2023-01-28T06:29:15;99755.84;;;-0.11;82.97
75681;BME280;64294;49.176;16.626;2023-01-28T06:31:40;99758.72;;;-0.15;83.88
75681;BME280;64294;49.176;16.626;2023-01-28T06:34:06;99754.16;;;-0.09;84.03
75681;BME280;64294;49.176;16.626;2023-01-28T06:36:31;99752.75;;;-0.13;83.42
75681;BME280;64294;49.176;16.626;2023-01-28T06:38:57;99759.69;;;-0.09;83.26
75681;BME280;64294;49.176;16.626;2023-01-28T06:41:23;99762.91;;;-0.10;82.98
75681;BME280;64294;49.176;16.626;2023-01-28T06:43:48;99757.06;;;-0.12;83.20
75681;BME280;64294;49.176;16.626;2023-01-28T06:46:14;99765.34;;;-0.12;84.32
75681;BME280;64294;49.176;16.626;2023-01-28T06:48:39;99776.88;;;-0.05;86.92
75681;BME280;64294;49.176;16.626;2023-01-28T06:51:04;99762.91;;;-0.10;83.86
75681;BME280;64294;49.176;16.626;2023-01-28T06:53:30;99773.81;;;-0.07;84.44
75681;BME280;64294;49.176;16.626;2023-01-28T06:55:55;99778.31;;;0.00;84.11
75681;BME280;64294;49.176;16.626;2023-01-28T06:58:20;99778.25;;;-0.09;85.00
75681;BME280;64294;49.176;16.626;2023-01-28T07:00:46;99795.00;;;-0.04;84.86
75681;BME280;64294;49.176;16.626;2023-01-28T07:03:11;99785.59;;;-0.15;84.62
75681;BME280;64294;49.176;16.626;2023-01-28T07:05:37;99789.59;;;-0.16;84.85
75681;BME280;64294;49.176;16.626;2023-01-28T07:08:03;99795.59;;;-0.09;85.38
75681;BME280;64294;49.176;16.626;2023-01-28T07:10:28;99785.28;;;-0.17;85.66
75681;BME280;64294;49.176;16.626;2023-01-28T07:12:54;99789.06;;;-0.24;85.11
75681;BME280;64294;49.176;16.626;2023-01-28T07:15:19;99784.63;;;-0.21;85.35
75681;BME280;64294;49.176;16.626;2023-01-28T07:17:44;99795.66;;;-0.21;85.41
75681;BME280;64294;49.176;16.626;2023-01-28T07:20:12;99791.06;;;-0.24;85.68
75681;BME280;64294;49.176;16.626;2023-01-28T07:22:42;99798.63;;;-0.16;85.35
75681;BME280;64294;49.176;16.626;2023-01-28T07:25:09;99797.22;;;-0.20;85.55
75681;BME280;64294;49.176;16.626;2023-01-28T07:27:35;99794.66;;;-0.15;85.22
75681;BME280;64294;49.176;16.626;2023-01-28T07:30:00;99791.69;;;-0.20;85.91
75681;BME280;64294;49.176;16.626;2023-01-28T07:32:26;99800.94;;;-0.14;85.42
75681;BME280;64294;49.176;16.626;2023-01-28T07:34:52;99795.13;;;-0.07;84.75
75681;BME280;64294;49.176;16.626;2023-01-28T07:37:18;99790.44;;;0.03;84.72
75681;BME280;64294;49.176;16.626;2023-01-28T07:39:43;99796.72;;;0.03;84.67
75681;BME280;64294;49.176;16.626;2023-01-28T07:42:09;99801.97;;;0.10;84.44
75681;BME280;64294;49.176;16.626;2023-01-28T07:44:34;99795.22;;;0.11;84.10
75681;BME280;64294;49.176;16.626;2023-01-28T07:47:01;99811.81;;;0.11;84.30
75681;BME280;64294;49.176;16.626;2023-01-28T07:49:27;99803.69;;;0.17;83.97
75681;BME280;64294;49.176;16.626;2023-01-28T07:51:52;99795.38;;;0.17;83.76
75681;BME280;64294;49.176;16.626;2023-01-28T07:54:17;99809.72;;;0.24;83.77
75681;BME280;64294;49.176;16.626;2023-01-28T07:56:43;99809.09;;;0.20;83.51
75681;BME280;64294;49.176;16.626;2023-01-28T07:59:08;99807.25;;;0.26;83.53
75681;BME280;64294;49.176;16.626;2023-01-28T08:01:34;99814.81;;;0.35;82.43
75681;BME280;64294;49.176;16.626;2023-01-28T08:03:59;99808.50;;;0.25;82.47
75681;BME280;64294;49.176;16.626;2023-01-28T08:06:27;99809.44;;;0.32;81.80
75681;BME280;64294;49.176;16.626;2023-01-28T08:08:52;99814.34;;;0.27;81.15
75681;BME280;64294;49.176;16.626;2023-01-28T08:11:18;99816.94;;;0.22;82.23
75681;BME280;64294;49.176;16.626;2023-01-28T08:13:43;99822.31;;;0.25;82.15
75681;BME280;64294;49.176;16.626;2023-01-28T08:16:09;99823.56;;;0.34;82.09
75681;BME280;64294;49.176;16.626;2023-01-28T08:18:34;99833.09;;;0.33;81.91
75681;BME280;64294;49.176;16.626;2023-01-28T08:20:59;99833.28;;;0.38;81.48
75681;BME280;64294;49.176;16.626;2023-01-28T08:23:26;99831.41;;;0.35;81.54
75681;BME280;64294;49.176;16.626;2023-01-28T08:25:52;99839.88;;;0.41;81.81
75681;BME280;64294;49.176;16.626;2023-01-28T08:28:19;99836.81;;;0.39;81.04
75681;BME280;64294;49.176;16.626;2023-01-28T08:30:45;99846.34;;;0.38;81.38
75681;BME280;64294;49.176;16.626;2023-01-28T08:33:13;99842.69;;;0.50;81.20
75681;BME280;64294;49.176;16.626;2023-01-28T08:35:39;99849.75;;;0.51;81.54
75681;BME280;64294;49.176;16.626;2023-01-28T08:38:05;99856.72;;;0.74;81.65
75681;BME280;64294;49.176;16.626;2023-01-28T08:40:31;99836.44;;;0.68;80.53
75681;BME280;64294;49.176;16.626;2023-01-28T08:42:57;99842.72;;;0.68;79.38
75681;BME280;64294;49.176;16.626;2023-01-28T08:45:24;99842.00;;;0.77;79.06
75681;BME280;64294;49.176;16.626;2023-01-28T08:47:52;99834.75;;;0.70;78.83
75681;BME280;64294;49.176;16.626;2023-01-28T08:50:19;99846.88;;;0.73;78.34
75681;BME280;64294;49.176;16.626;2023-01-28T08:52:46;99854.72;;;0.74;77.57
75681;BME280;64294;49.176;16.626;2023-01-28T08:55:14;99848.63;;;0.79;78.29
75681;BME280;64294;49.176;16.626;2023-01-28T08:57:40;99852.75;;;0.75;76.78
75681;BME280;64294;49.176;16.626;2023-01-28T09:00:07;99852.88;;;0.71;77.27
75681;BME280;64294;49.176;16.626;2023-01-28T09:02:35;99856.88;;;0.70;78.05
75681;BME280;64294;49.176;16.626;2023-01-28T09:05:00;99853.53;;;0.75;77.68
75681;BME280;64294;49.176;16.626;2023-01-28T09:07:25;99867.94;;;0.61;77.87
75681;BME280;64294;49.176;16.626;2023-01-28T09:09:51;99877.00;;;0.62;77.60
75681;BME280;64294;49.176;16.626;2023-01-28T09:12:16;99876.38;;;0.57;78.11
75681;BME280;64294;49.176;16.626;2023-01-28T09:14:42;99877.91;;;0.58;79.03
75681;BME280;64294;49.176;16.626;2023-01-28T09:17:07;99874.63;;;0.51;78.17
75681;BME280;64294;49.176;16.626;2023-01-28T09:19:32;99879.25;;;0.54;78.72
75681;BME280;64294;49.176;16.626;2023-01-28T09:21:58;99872.84;;;0.66;78.83
75681;BME280;64294;49.176;16.626;2023-01-28T09:24:23;99889.75;;;0.59;79.02
75681;BME280;64294;49.176;16.626;2023-01-28T09:26:49;99881.47;;;0.68;78.92
75681;BME280;64294;49.176;16.626;2023-01-28T09:29:15;99893.44;;;0.65;78.24
75681;BME280;64294;49.176;16.626;2023-01-28T09:31:41;99892.69;;;0.74;77.50
75681;BME280;64294;49.176;16.626;2023-01-28T09:34:07;99888.78;;;0.93;77.00
75681;BME280;64294;49.176;16.626;2023-01-28T09:36:32;99892.94;;;0.98;77.60
75681;BME280;64294;49.176;16.626;2023-01-28T09:38:58;99892.63;;;0.96;76.28
75681;BME280;64294;49.176;16.626;2023-01-28T09:46:43;99881.00;;;1.37;75.16
75681;BME280;64294;49.176;16.626;2023-01-28T09:49:34;99888.22;;;1.80;73.55
75681;BME280;64294;49.176;16.626;2023-01-28T09:52:01;99888.78;;;2.03;71.88
75681;BME280;64294;49.176;16.626;2023-01-28T09:54:40;99887.84;;;2.24;72.16
75681;BME280;64294;49.176;16.626;2023-01-28T09:57:13;99891.78;;;2.84;69.12
75681;BME280;64294;49.176;16.626;2023-01-28T09:59:42;99885.72;;;3.18;67.19
75681;BME280;64294;49.176;16.626;2023-01-28T10:05:06;99876.19;;;2.86;66.12
75681;BME280;64294;49.176;16.626;2023-01-28T10:07:57;99877.78;;;3.26;65.60
75681;BME280;64294;49.176;16.626;2023-01-28T10:10:29;99877.53;;;3.77;63.95
75681;BME280;64294;49.176;16.626;2023-01-28T10:13:19;99866.75;;;5.95;57.04
75681;BME280;64294;49.176;16.626;2023-01-28T10:24:15;99868.22;;;8.21;46.61
75681;BME280;64294;49.176;16.626;2023-01-28T10:26:43;99866.91;;;7.83;47.07
75681;BME280;64294;49.176;16.626;2023-01-28T10:29:12;99869.44;;;7.21;48.05
75681;BME280;64294;49.176;16.626;2023-01-28T10:31:51;99866.16;;;6.75;49.10
75681;BME280;64294;49.176;16.626;2023-01-28T10:34:17;99865.56;;;6.65;49.71
75681;BME280;64294;49.176;16.626;2023-01-28T10:36:43;99864.28;;;6.03;51.31
75681;BME280;64294;49.176;16.626;2023-01-28T10:39:12;99865.75;;;6.24;50.62
75681;BME280;64294;49.176;16.626;2023-01-28T10:41:38;99857.97;;;5.82;52.20
75681;BME280;64294;49.176;16.626;2023-01-28T10:44:04;99858.19;;;5.78;52.13
75681;BME280;64294;49.176;16.626;2023-01-28T10:46:32;99862.03;;;6.07;51.03
75681;BME280;64294;49.176;16.626;2023-01-28T10:49:16;99855.78;;;5.45;52.89
75681;BME280;64294;49.176;16.626;2023-01-28T10:51:43;99850.75;;;4.53;54.39
75681;BME280;64294;49.176;16.626;2023-01-28T10:56:44;99857.63;;;3.93;57.63
75681;BME280;64294;49.176;16.626;2023-01-28T11:02:46;99863.34;;;3.75;58.91
75681;BME280;64294;49.176;16.626;2023-01-28T11:05:05;99863.50;;;3.57;60.02
75681;BME280;64294;49.176;16.626;2023-01-28T11:07:31;99856.91;;;3.30;61.03
75681;BME280;64294;49.176;16.626;2023-01-28T11:09:56;99859.19;;;3.56;60.32
75681;BME280;64294;49.176;16.626;2023-01-28T11:12:28;99865.66;;;3.91;60.01
75681;BME280;64294;49.176;16.626;2023-01-28T11:14:59;99865.47;;;3.80;59.50
75681;BME280;64294;49.176;16.626;2023-01-28T11:17:37;99865.00;;;3.43;60.83
75681;BME280;64294;49.176;16.626;2023-01-28T11:20:12;99873.94;;;3.23;62.63
75681;BME280;64294;49.176;16.626;2023-01-28T11:22:44;99876.28;;;2.92;63.25
75681;BME280;64294;49.176;16.626;2023-01-28T11:25:18;99876.44;;;2.64;64.00
75681;BME280;64294;49.176;16.626;2023-01-28T11:27:49;99862.81;;;2.76;66.08
75681;BME280;64294;49.176;16.626;2023-01-28T11:32:56;99863.16;;;2.68;65.55
75681;BME280;64294;49.176;16.626;2023-01-28T11:35:28;99859.13;;;3.02;63.68
75681;BME280;64294;49.176;16.626;2023-01-28T11:37:58;99861.59;;;3.24;63.59
75681;BME280;64294;49.176;16.626;2023-01-28T11:40:25;99864.75;;;3.17;63.02
75681;BME280;64294;49.176;16.626;2023-01-28T11:42:52;99864.09;;;2.98;63.93
75681;BME280;64294;49.176;16.626;2023-01-28T11:45:23;99863.72;;;3.06;64.37
75681;BME280;64294;49.176;16.626;2023-01-28T11:48:13;99854.06;;;3.40;63.06
75681;BME280;64294;49.176;16.626;2023-01-28T11:50:54;99851.34;;;3.69;61.44
75681;BME280;64294;49.176;16.626;2023-01-28T11:53:37;99846.59;;;3.46;62.06
75681;BME280;64294;49.176;16.626;2023-01-28T11:59:15;99849.81;;;3.68;62.33
75681;BME280;64294;49.176;16.626;2023-01-28T12:02:24;99851.06;;;4.26;61.30
75681;BME280;64294;49.176;16.626;2023-01-28T12:05:12;99846.94;;;4.36;59.64
75681;BME280;64294;49.176;16.626;2023-01-28T12:08:14;99851.19;;;4.17;59.54
75681;BME280;64294;49.176;16.626;2023-01-28T12:11:08;99852.63;;;3.98;60.34
75681;BME280;64294;49.176;16.626;2023-01-28T12:19:25;99859.53;;;3.10;63.56
75681;BME280;64294;49.176;16.626;2023-01-28T12:22:19;99859.94;;;2.94;65.33
75681;BME280;64294;49.176;16.626;2023-01-28T12:27:46;99860.50;;;2.41;67.53
75681;BME280;64294;49.176;16.626;2023-01-28T12:38:39;99865.72;;;1.97;70.45
75681;BME280;64294;49.176;16.626;2023-01-28T12:41:12;99860.66;;;1.86;71.00
75681;BME280;64294;49.176;16.626;2023-01-28T12:43:56;99863.56;;;1.82;71.38
75681;BME280;64294;49.176;16.626;2023-01-28T12:58:02;99870.84;;;1.71;72.97
75681;BME280;64294;49.176;16.626;2023-01-28T13:00:35;99877.16;;;1.53;73.20
75681;BME280;64294;49.176;16.626;2023-01-28T13:03:25;99882.22;;;1.55;73.27
75681;BME280;64294;49.176;16.626;2023-01-28T13:05:58;99881.75;;;1.38;74.88
75681;BME280;64294;49.176;16.626;2023-01-28T13:08:28;99889.59;;;1.39;75.18
75681;BME280;64294;49.176;16.626;2023-01-28T13:10:56;99889.63;;;1.30;75.05
75681;BME280;64294;49.176;16.626;2023-01-28T13:15:54;99887.00;;;1.36;75.17
75681;BME280;64294;49.176;16.626;2023-01-28T13:21:05;99893.44;;;1.42;75.44
75681;BME280;64294;49.176;16.626;2023-01-28T13:23:38;99893.91;;;1.31;76.29
75681;BME280;64294;49.176;16.626;2023-01-28T13:28:45;99893.00;;;1.34;76.02
75681;BME280;64294;49.176;16.626;2023-01-28T13:31:13;99898.38;;;1.38;76.18
75681;BME280;64294;49.176;16.626;2023-01-28T13:34:04;99903.47;;;1.39;76.54
75681;BME280;64294;49.176;16.626;2023-01-28T13:36:32;99892.06;;;1.37;76.39
75681;BME280;64294;49.176;16.626;2023-01-28T13:39:23;99899.59;;;1.46;76.49
75681;BME280;64294;49.176;16.626;2023-01-28T13:41:52;99905.16;;;1.46;76.35
75681;BME280;64294;49.176;16.626;2023-01-28T13:46:49;99907.00;;;1.40;76.60
75681;BME280;64294;49.176;16.626;2023-01-28T13:49:19;99904.66;;;1.29;76.85
75681;BME280;64294;49.176;16.626;2023-01-28T13:52:15;99901.75;;;1.24;77.06
75681;BME280;64294;49.176;16.626;2023-01-28T13:54:50;99902.22;;;1.31;77.85
75681;BME280;64294;49.176;16.626;2023-01-28T14:00:36;99904.66;;;1.29;77.55
75681;BME280;64294;49.176;16.626;2023-01-28T14:19:50;99925.88;;;1.23;79.24
75681;BME280;64294;49.176;16.626;2023-01-28T14:22:18;99923.88;;;1.14;80.60
75681;BME280;64294;49.176;16.626;2023-01-28T14:24:44;99929.28;;;1.18;82.63
75681;BME280;64294;49.176;16.626;2023-01-28T14:27:30;99924.03;;;1.29;80.82
75681;BME280;64294;49.176;16.626;2023-01-28T14:33:01;99934.19;;;1.14;81.75
75681;BME280;64294;49.176;16.626;2023-01-28T14:35:31;99940.34;;;1.18;81.08
75681;BME280;64294;49.176;16.626;2023-01-28T14:37:58;99941.72;;;1.13;80.82
75681;BME280;64294;49.176;16.626;2023-01-28T14:40:25;99934.78;;;1.09;81.77
75681;BME280;64294;49.176;16.626;2023-01-28T14:42:54;99938.47;;;1.06;80.81
75681;BME280;64294;49.176;16.626;2023-01-28T14:48:20;99952.00;;;1.04;82.28
75681;BME280;64294;49.176;16.626;2023-01-28T14:51:09;99953.84;;;1.07;81.75
75681;BME280;64294;49.176;16.626;2023-01-28T14:53:48;99955.97;;;0.94;82.59
75681;BME280;64294;49.176;16.626;2023-01-28T15:01:45;99956.59;;;0.98;83.02
75681;BME280;64294;49.176;16.626;2023-01-28T15:04:29;99959.97;;;1.02;82.77
75681;BME280;64294;49.176;16.626;2023-01-28T15:06:55;99968.13;;;0.96;83.00
75681;BME280;64294;49.176;16.626;2023-01-28T15:09:22;99963.31;;;0.87;83.62